Autoprogress — CQQF — position and weather

sailwx.info

Track history (hours):
 
Tides and Currents Weather Stations Pressure Air Temp Water Temp Dewpoint Dewpoint Depression Visibility Wind Speed Wind Dir Waves Ship Positions

Autoprogress

Last reported at 2018-Jun-21 09:49 UTC. Time now 2018-Jun-21 22:03 UTC.
Position N 48°08' W 005°34'.

Length 125 m; draft 4.9 m.

Type: Cargo ship. MMSI: 255801570.

Date/timePositionNaut miles runAvg speedWind from/ knotsBaromVisibWave heightAir tempDewpointWater temp
2018-Jun-21 09:49N 48°08' W 005°34'11111.9
2018-Jun-21 00:29N 49°37' W 003°51'613.7
2018-Jun-21 00:00N 49°40' W 003°43'713.5
2018-Jun-20 23:30N 49°44' W 003°34'713.4
2018-Jun-20 22:57N 49°48' W 003°24'613.5
2018-Jun-20 22:30N 49°51' W 003°16'713.7
2018-Jun-20 22:00N 49°54' W 003°07'714.4
2018-Jun-20 21:30N 49°57' W 002°57'714.8
2018-Jun-20 21:01N 49°60' W 002°46'815.5
2018-Jun-20 20:30N 50°02' W 002°34'2916.3
2018-Jun-20 18:42N 49°56' W 001°49'816.8
2018-Jun-20 18:13N 49°53' W 001°37'316.6
2018-Jun-20 18:00N 49°52' W 001°32'816.7
2018-Jun-20 17:31N 49°49' W 001°20'816.3
2018-Jun-20 17:00N 49°46' W 001°08'715.0
2018-Jun-20 16:31N 49°44' W 000°58'714.2
2018-Jun-20 16:00N 49°42' W 000°47'713.8
2018-Jun-20 15:30N 49°39' W 000°37'611.9
2018-Jun-20 15:00N 49°37' W 000°29'612.3
2018-Jun-20 14:30N 49°34' W 000°20'612.5
2018-Jun-20 14:00N 49°32' W 000°11'713.7
2018-Jun-20 13:30N 49°30' W 000°01'612.0
2018-Jun-20 13:00N 49°28' E 000°08'2 3.4
2018-Jun-20 12:30N 49°29' E 000°10'0 0.8
2018-Jun-20 12:00N 49°29' E 000°11'1 1.3
2018-Jun-20 11:30N 49°28' E 000°12'0 0.0
2018-Jun-20 11:00N 49°28' E 000°12'0 0.0
2018-Jun-20 10:30N 49°28' E 000°12'0 0.0
2018-Jun-20 10:00N 49°28' E 000°12'0 0.0
2018-Jun-20 09:30N 49°28' E 000°12'0 0.0
2018-Jun-20 08:57N 49°28' E 000°12'0 0.0
2018-Jun-20 08:30N 49°28' E 000°12'0 0.0
2018-Jun-20 08:00N 49°28' E 000°12'0 0.0
2018-Jun-20 07:30N 49°28' E 000°12'0 0.0
2018-Jun-20 07:00N 49°28' E 000°12'0 0.0
2018-Jun-20 06:30N 49°28' E 000°12'0 0.0
2018-Jun-20 06:00N 49°28' E 000°12'0 0.0
2018-Jun-20 05:30N 49°28' E 000°12'0 0.0
2018-Jun-20 05:00N 49°28' E 000°12'0 0.0
2018-Jun-20 04:30N 49°28' E 000°12'0 0.0
2018-Jun-20 04:00N 49°28' E 000°12'0 0.0
2018-Jun-20 03:30N 49°28' E 000°12'0 0.0
2018-Jun-20 03:00N 49°28' E 000°12'0 0.0
2018-Jun-20 02:30N 49°28' E 000°12'0 0.0
2018-Jun-20 02:00N 49°28' E 000°12'0 0.0
2018-Jun-20 01:30N 49°28' E 000°12'0 0.0
2018-Jun-20 01:00N 49°28' E 000°12'0 0.0
2018-Jun-20 00:30N 49°28' E 000°12'0 0.0
2018-Jun-20 00:00N 49°28' E 000°12'0 0.0
2018-Jun-19 23:30N 49°28' E 000°12'0 0.0
2018-Jun-19 23:00N 49°28' E 000°12'0 0.0
2018-Jun-19 22:30N 49°28' E 000°12'0 0.0
2018-Jun-19 22:00N 49°28' E 000°12'0 0.0
2018-Jun-19 21:30N 49°28' E 000°12'0 0.0
2018-Jun-19 21:00N 49°28' E 000°12'1 1.9
2018-Jun-19 20:30N 49°29' E 000°10'0 0.6
2018-Jun-19 20:00N 49°28' E 000°10'4 8.1
2018-Jun-19 19:30N 49°29' E 000°04'713.3
2018-Jun-19 19:00N 49°31' W 000°06'611.1
2018-Jun-19 18:30N 49°36' W 000°11'612.4
2018-Jun-19 18:00N 49°41' W 000°15'510.7
2018-Jun-19 17:30N 49°46' W 000°20'611.8
2018-Jun-19 17:00N 49°51' W 000°24'611.8
2018-Jun-19 16:30N 49°56' W 000°28'612.2
2018-Jun-19 16:00N 50°02' W 000°32'2012.9
2018-Jun-19 14:27N 50°21' W 000°43'614.0
2018-Jun-19 14:00N 50°26' W 000°49'713.7
2018-Jun-19 13:30N 50°32' W 000°54'713.5
2018-Jun-19 13:00N 50°38' W 000°58'714.1
2018-Jun-19 12:30N 50°44' W 001°04'713.5
2018-Jun-19 12:00N 50°46' W 001°14'510.8
2018-Jun-19 11:30N 50°50' W 001°19'5 9.9
2018-Jun-19 11:00N 50°54' W 001°25'1 1.2
2018-Jun-19 10:29N 50°54' W 001°26'0 0.0
2018-Jun-19 09:59N 50°54' W 001°26'0 0.0
2018-Jun-19 09:29N 50°54' W 001°26'0 0.0
2018-Jun-19 08:59N 50°54' W 001°26'0 0.0
2018-Jun-19 08:29N 50°54' W 001°26'1 2.5
2018-Jun-19 08:01N 50°53' W 001°24'0 0.9
2018-Jun-19 07:30N 50°53' W 001°24'0 0.0
2018-Jun-19 07:00N 50°53' W 001°24'0 0.0
2018-Jun-19 06:30N 50°53' W 001°24'0 0.0
2018-Jun-19 06:00N 50°53' W 001°24'0 0.0
2018-Jun-19 05:30N 50°53' W 001°24'1 1.0
2018-Jun-19 05:00N 50°53' W 001°24'4 7.3
2018-Jun-19 04:30N 50°50' W 001°19'611.1
2018-Jun-19 04:00N 50°47' W 001°12'612.2
2018-Jun-19 03:31N 50°44' W 001°04'714.1
2018-Jun-19 03:00N 50°40' W 000°55'713.8
2018-Jun-19 02:30N 50°38' W 000°45'714.3
2018-Jun-19 02:00N 50°36' W 000°34'714.5
2018-Jun-19 01:30N 50°35' W 000°22'1114.1
2018-Jun-19 00:46N 50°33' W 000°06'414.1
2018-Jun-19 00:31N 50°32' W 000°01'714.0
2018-Jun-19 00:00N 50°34' E 000°10'713.5
2018-Jun-18 23:30N 50°36' E 000°20'713.8
2018-Jun-18 23:00N 50°38' E 000°31'714.3
2018-Jun-18 22:30N 50°41' E 000°41'815.6
2018-Jun-18 22:00N 50°46' E 000°51'816.3
2018-Jun-18 21:30N 50°51' E 001°01'816.3
2018-Jun-18 21:00N 50°56' E 001°11'816.2
2018-Jun-18 20:30N 51°01' E 001°21'815.6
2018-Jun-18 20:00N 51°06' E 001°31'714.6
2018-Jun-18 19:30N 51°10' E 001°40'714.2
2018-Jun-18 19:00N 51°15' E 001°48'713.8
2018-Jun-18 18:30N 51°21' E 001°54'510.6
2018-Jun-18 18:00N 51°25' E 002°00'612.5
2018-Jun-18 17:30N 51°22' E 002°09'611.9
2018-Jun-18 17:01N 51°20' E 002°19'510.6
2018-Jun-18 16:30N 51°22' E 002°27'510.7
2018-Jun-18 16:00N 51°23' E 002°35'611.2
2018-Jun-18 15:30N 51°23' E 002°44'611.6
2018-Jun-18 15:00N 51°23' E 002°54'815.4
2018-Jun-18 14:30N 51°24' E 003°06'612.3
2018-Jun-18 14:01N 51°20' E 003°13'0 0.0
2018-Jun-18 13:30N 51°20' E 003°13'0 0.4
2018-Jun-18 13:00N 51°20' E 003°13'0 0.8
2018-Jun-18 12:26N 51°19' E 003°13'0 0.0
2018-Jun-18 10:53N 51°19' E 003°13'0 0.0
2018-Jun-18 10:23N 51°19' E 003°13'0 0.0
2018-Jun-18 09:56N 51°19' E 003°13'0 0.0
2018-Jun-18 09:29N 51°19' E 003°13'0 0.0
2018-Jun-18 08:56N 51°19' E 003°13'0 0.0
2018-Jun-18 08:29N 51°19' E 003°13'0 0.0
2018-Jun-18 07:53N 51°19' E 003°13'0 0.0
2018-Jun-18 07:29N 51°19' E 003°13'0 0.0
2018-Jun-18 04:41N 51°19' E 003°13'0 0.0
2018-Jun-18 04:14N 51°19' E 003°13'0 0.0
2018-Jun-18 03:41N 51°19' E 003°13'0 0.0
2018-Jun-18 03:23N 51°19' E 003°13'0 0.0
2018-Jun-18 03:00N 51°19' E 003°13'0 0.9
2018-Jun-18 02:30N 51°20' E 003°13'0 0.7
2018-Jun-18 02:00N 51°20' E 003°13'5 9.3
2018-Jun-18 01:30N 51°24' E 003°08'816.6
2018-Jun-18 01:00N 51°22' E 002°55'714.5
2018-Jun-18 00:30N 51°22' E 002°43'610.1
2018-Jun-17 23:54N 51°22' E 002°34'3 6.4
2018-Jun-17 23:27N 51°21' E 002°29'3 5.9
2018-Jun-17 22:54N 51°20' E 002°24'3 7.0
2018-Jun-17 22:29N 51°19' E 002°20'4 7.4
2018-Jun-17 22:00N 51°17' E 002°15'4 7.6
2018-Jun-17 21:30N 51°15' E 002°10'4 8.9
2018-Jun-17 21:00N 51°13' E 002°04'4 8.9
2018-Jun-17 20:30N 51°11' E 001°58'4 8.9
2018-Jun-17 20:00N 51°08' E 001°52'5 9.1
2018-Jun-17 19:30N 51°06' E 001°46'510.0
2018-Jun-17 19:00N 51°02' E 001°40'611.3
2018-Jun-17 18:30N 50°58' E 001°34'712.9
2018-Jun-17 18:00N 50°53' E 001°28'5012.4
2018-Jun-17 13:58N 50°23' E 000°25'714.1
2018-Jun-17 13:30N 50°21' E 000°15'714.6
2018-Jun-17 13:00N 50°19' E 000°04'815.1
2018-Jun-17 12:30N 50°17' W 000°08'815.7
2018-Jun-17 12:00N 50°15' W 000°19'816.3
2018-Jun-17 11:30N 50°13' W 000°31'816.6
2018-Jun-17 11:00N 50°10' W 000°44'816.8
2018-Jun-17 10:30N 50°08' W 000°56'6715.1
2018-Jun-17 06:06N 49°50' W 002°37'1811.8
2018-Jun-17 04:33N 49°43' W 003°03'111.5
2018-Jun-17 04:30N 49°43' W 003°03'611.3
2018-Jun-17 03:59N 49°40' W 003°11'711.1
2018-Jun-17 03:22N 49°36' W 003°20'911.2
2018-Jun-17 02:32N 49°32' W 003°33'211.3
2018-Jun-17 02:22N 49°31' W 003°36'411.4
2018-Jun-17 01:59N 49°29' W 003°41'511.2
2018-Jun-17 01:30N 49°26' W 003°49'611.1
2018-Jun-17 00:59N 49°23' W 003°56'711.2
2018-Jun-17 00:23N 49°20' W 004°05'411.3
2018-Jun-17 00:00N 49°18' W 004°11'611.7
2018-Jun-16 23:30N 49°15' W 004°18'711.9
2018-Jun-16 22:57N 49°11' W 004°27'512.1
2018-Jun-16 22:30N 49°08' W 004°34'712.3
2018-Jun-16 21:58N 49°05' W 004°43'612.5
2018-Jun-16 21:29N 49°02' W 004°51'613.1
2018-Jun-16 21:00N 48°59' W 004°59'713.4
2018-Jun-16 20:30N 48°56' W 005°08'612.9
2018-Jun-16 20:01N 48°52' W 005°16'917.8
2018-Jun-16 19:31N 48°48' W 005°28'1317.1
2018-Jun-16 18:46N 48°38' W 005°41'2316.3
2018-Jun-16 17:21N 48°16' W 005°30'617.0
2018-Jun-16 16:59N 48°11' W 005°26'816.8
2018-Jun-16 16:30N 48°04' W 005°20'917.5
2018-Jun-16 16:00N 47°56' W 005°14'917.6
2018-Jun-16 15:29N 47°48' W 005°08'11716.1
2018-Jun-16 08:14N 46°03' W 003°52'1813.0
2018-Jun-16 06:51N 45°47' W 003°40'612.8
2018-Jun-16 06:21N 45°41' W 003°36'8513.1
2018-Jun-15 23:53N 44°26' W 002°42'513.4
2018-Jun-15 23:30N 44°22' W 002°38'713.2
2018-Jun-15 23:00N 44°16' W 002°35'612.8
2018-Jun-15 22:30N 44°10' W 002°31'612.4
2018-Jun-15 22:00N 44°04' W 002°27'612.3
2018-Jun-15 21:30N 43°59' W 002°23'612.5
2018-Jun-15 21:00N 43°53' W 002°19'612.5
2018-Jun-15 20:30N 43°48' W 002°15'612.1
2018-Jun-15 20:00N 43°42' W 002°11'612.4
2018-Jun-15 19:30N 43°37' W 002°07'613.0
2018-Jun-15 19:00N 43°31' W 002°03'713.1
2018-Jun-15 18:30N 43°26' W 001°59'7 7.3
2018-Jun-15 17:33N 43°19' W 001°54'0 0.1
2018-Jun-15 17:27N 43°19' W 001°54'0 0.0
2018-Jun-15 17:00N 43°19' W 001°54'0 0.0
2018-Jun-15 16:30N 43°19' W 001°54'0 0.0
2018-Jun-15 15:59N 43°19' W 001°54'0 0.0
2018-Jun-15 15:29N 43°19' W 001°54'0 0.0
2018-Jun-15 14:56N 43°19' W 001°54'0 0.0
2018-Jun-15 14:26N 43°19' W 001°54'0 0.0
2018-Jun-15 13:44N 43°19' W 001°54'0 0.0
2018-Jun-15 13:26N 43°19' W 001°54'0 0.0
2018-Jun-15 12:56N 43°19' W 001°54'0 0.0
2018-Jun-15 12:29N 43°19' W 001°54'0 0.0
2018-Jun-15 11:59N 43°19' W 001°54'0 0.0
2018-Jun-15 11:29N 43°19' W 001°54'0 0.2
2018-Jun-15 11:00N 43°19' W 001°54'3 5.0
2018-Jun-15 10:30N 43°21' W 001°56'714.8
2018-Jun-15 10:01N 43°28' W 002°01'816.0
2018-Jun-15 09:30N 43°35' W 002°06'815.8
2018-Jun-15 09:01N 43°42' W 002°11'815.9
2018-Jun-15 08:31N 43°49' W 002°17'815.6
2018-Jun-15 08:01N 43°56' W 002°22'815.7
2018-Jun-15 07:31N 44°03' W 002°27'816.1
2018-Jun-15 07:01N 44°10' W 002°32'815.9
2018-Jun-15 06:30N 44°17' W 002°37'815.9
2018-Jun-15 06:01N 44°24' W 002°42'32113.1
2018-Jun-14 05:37N 49°43' W 003°37'211.6
2018-Jun-14 05:28N 49°44' W 003°35'511.6
2018-Jun-14 05:00N 49°46' W 003°28'612.3
2018-Jun-14 04:30N 49°49' W 003°19'613.0
2018-Jun-14 04:00N 49°53' W 003°11'714.1
2018-Jun-14 03:30N 49°56' W 003°01'815.1
2018-Jun-14 03:00N 49°59' W 002°50'816.1
2018-Jun-14 02:30N 50°01' W 002°38'1816.7
2018-Jun-14 01:26N 49°59' W 002°10'818.3
2018-Jun-14 01:00N 49°56' W 001°59'918.5
2018-Jun-14 00:31N 49°54' W 001°45'917.8
2018-Jun-14 00:00N 49°52' W 001°32'917.4
2018-Jun-13 23:30N 49°49' W 001°19'816.6
2018-Jun-13 23:01N 49°46' W 001°07'815.3
2018-Jun-13 22:30N 49°43' W 000°56'714.6
2018-Jun-13 22:00N 49°40' W 000°46'714.0
2018-Jun-13 21:30N 49°38' W 000°36'713.6
2018-Jun-13 21:01N 49°36' W 000°26'713.8
2018-Jun-13 20:30N 49°33' W 000°16'714.6
2018-Jun-13 20:01N 49°31' W 000°05'816.1
2018-Jun-13 19:30N 49°29' E 000°07'2 4.6
2018-Jun-13 18:59N 49°29' E 000°10'0 0.0
2018-Jun-13 18:29N 49°29' E 000°10'1 2.1
2018-Jun-13 17:59N 49°28' E 000°12'0 0.0
2018-Jun-13 17:29N 49°28' E 000°12'0 0.0
2018-Jun-13 16:59N 49°28' E 000°12'0 0.0
2018-Jun-13 16:29N 49°28' E 000°12'0 0.0
2018-Jun-13 15:59N 49°28' E 000°12'0 0.0
2018-Jun-13 15:29N 49°28' E 000°12'0 0.0
2018-Jun-13 14:59N 49°28' E 000°12'0 0.0
2018-Jun-13 14:29N 49°28' E 000°12'0 0.0
2018-Jun-13 13:59N 49°28' E 000°12'0 0.0
2018-Jun-13 13:29N 49°28' E 000°12'0 0.0
2018-Jun-13 12:59N 49°28' E 000°12'1 2.2
2018-Jun-13 12:30N 49°29' E 000°10'0 0.0
2018-Jun-13 12:00N 49°29' E 000°10'2 3.1
2018-Jun-13 11:30N 49°28' E 000°08'3 6.9
2018-Jun-13 11:00N 49°30' E 000°03'611.2
2018-Jun-13 10:30N 49°31' W 000°05'5 9.2
2018-Jun-13 10:00N 49°35' W 000°09'3 6.7
2018-Jun-13 09:30N 49°37' W 000°12'4 7.5
2018-Jun-13 09:00N 49°40' W 000°16'4 7.4
2018-Jun-13 08:30N 49°41' W 000°21'3 5.1
2018-Jun-13 07:55N 49°42' W 000°17'4 9.9
2018-Jun-13 07:30N 49°45' W 000°19'611.3
2018-Jun-13 07:00N 49°50' W 000°23'611.2
2018-Jun-13 06:30N 49°56' W 000°27'611.7
2018-Jun-13 06:00N 50°01' W 000°31'611.2
2018-Jun-13 05:30N 50°06' W 000°34'611.5
2018-Jun-13 05:00N 50°11' W 000°38'712.2
2018-Jun-13 04:25N 50°17' W 000°43'511.6
2018-Jun-13 03:57N 50°22' W 000°47'612.5
2018-Jun-13 03:30N 50°27' W 000°51'612.0
2018-Jun-13 03:00N 50°33' W 000°55'611.5
2018-Jun-13 02:30N 50°38' W 000°59'713.1
2018-Jun-13 02:00N 50°44' W 001°03'612.7
2018-Jun-13 01:31N 50°46' W 001°13'510.0
2018-Jun-13 01:00N 50°49' W 001°18'611.4
2018-Jun-13 00:30N 50°53' W 001°25'1 2.0
2018-Jun-13 00:00N 50°54' W 001°26'0 0.0
2018-Jun-12 12:18N 50°54' W 001°26'0 0.0
2018-Jun-12 11:39N 50°54' W 001°26'0 0.0
2018-Jun-12 11:12N 50°54' W 001°26'0 0.0
2018-Jun-12 10:48N 50°54' W 001°26'0 0.0
2018-Jun-12 08:51N 50°54' W 001°26'0 0.0
2018-Jun-12 08:18N 50°54' W 001°26'1 2.3
2018-Jun-12 08:00N 50°54' W 001°25'1 1.9
2018-Jun-12 07:30N 50°53' W 001°24'0 0.3
2018-Jun-12 06:58N 50°53' W 001°24'0 0.0
2018-Jun-12 06:25N 50°53' W 001°24'0 0.0
2018-Jun-12 05:58N 50°53' W 001°24'0 0.2
2018-Jun-12 05:30N 50°53' W 001°24'2 4.1
2018-Jun-12 05:00N 50°52' W 001°22'5 9.1
2018-Jun-12 04:30N 50°48' W 001°18'611.8
2018-Jun-12 04:00N 50°46' W 001°10'714.2
2018-Jun-12 03:30N 50°42' W 001°00'4 8.7
2018-Jun-12 03:00N 50°40' W 000°54'4 8.6
2018-Jun-12 02:30N 50°38' W 000°48'5 9.5
2018-Jun-12 02:00N 50°37' W 000°40'5 9.6
2018-Jun-12 01:30N 50°36' W 000°33'5 9.7
2018-Jun-12 01:00N 50°35' W 000°26'510.1
2018-Jun-12 00:30N 50°34' W 000°18'510.1
2018-Jun-12 00:00N 50°33' W 000°10'510.7
2018-Jun-11 23:30N 50°32' W 000°02'814.9
2018-Jun-11 23:00N 50°34' E 000°10'714.5
2018-Jun-11 22:31N 50°35' E 000°21'714.1
2018-Jun-11 22:00N 50°37' E 000°31'713.4
2018-Jun-11 21:30N 50°41' E 000°41'713.2
2018-Jun-11 21:00N 50°45' E 000°49'713.2
2018-Jun-11 20:30N 50°49' E 000°57'713.3
2018-Jun-11 20:00N 50°53' E 001°05'713.7
2018-Jun-11 19:30N 50°57' E 001°14'714.7
2018-Jun-11 19:00N 51°02' E 001°23'816.3
2018-Jun-11 18:30N 51°07' E 001°33'816.8
2018-Jun-11 18:00N 51°13' E 001°43'816.7
2018-Jun-11 17:30N 51°19' E 001°52'815.9
2018-Jun-11 17:01N 51°25' E 002°00'714.1
2018-Jun-11 16:31N 51°22' E 002°11'713.6
2018-Jun-11 16:00N 51°21' E 002°22'915.0
2018-Jun-11 15:26N 51°23' E 002°35'614.0
2018-Jun-11 15:00N 51°21' E 002°44'815.4
2018-Jun-11 14:30N 51°22' E 002°57'815.9
2018-Jun-11 14:00N 51°22' E 003°10'3 6.0
2018-Jun-11 13:31N 51°20' E 003°13'0 0.0
2018-Jun-11 13:00N 51°20' E 003°13'0 0.0
2018-Jun-11 12:31N 51°20' E 003°13'1 1.2
2018-Jun-11 12:01N 51°19' E 003°13'0 0.0
2018-Jun-11 11:29N 51°19' E 003°13'0 0.0
2018-Jun-11 10:59N 51°19' E 003°13'0 0.0
2018-Jun-11 10:29N 51°19' E 003°13'0 0.0
2018-Jun-11 09:59N 51°19' E 003°13'  
Track history (hours):
 
Tides and Currents Weather Stations Pressure Air Temp Water Temp Dewpoint Dewpoint Depression Visibility Wind Speed Wind Dir Waves Ship Positions

Autoprogress

Last reported at 2018-Jun-21 09:49 UTC. Time now 2018-Jun-21 22:03 UTC.
Position N 48°08' W 005°34'.

Length 125 m; draft 4.9 m.

Type: Cargo ship. MMSI: 255801570.

Date/timePositionNaut miles runAvg speedWind from/ knotsBaromVisibWave heightAir tempDewpointWater temp
2018-Jun-21 09:49N 48°08' W 005°34'11111.9
2018-Jun-21 00:29N 49°37' W 003°51'613.7
2018-Jun-21 00:00N 49°40' W 003°43'713.5
2018-Jun-20 23:30N 49°44' W 003°34'713.4
2018-Jun-20 22:57N 49°48' W 003°24'613.5
2018-Jun-20 22:30N 49°51' W 003°16'713.7
2018-Jun-20 22:00N 49°54' W 003°07'714.4
2018-Jun-20 21:30N 49°57' W 002°57'714.8
2018-Jun-20 21:01N 49°60' W 002°46'815.5
2018-Jun-20 20:30N 50°02' W 002°34'2916.3
2018-Jun-20 18:42N 49°56' W 001°49'816.8
2018-Jun-20 18:13N 49°53' W 001°37'316.6
2018-Jun-20 18:00N 49°52' W 001°32'816.7
2018-Jun-20 17:31N 49°49' W 001°20'816.3
2018-Jun-20 17:00N 49°46' W 001°08'715.0
2018-Jun-20 16:31N 49°44' W 000°58'714.2
2018-Jun-20 16:00N 49°42' W 000°47'713.8
2018-Jun-20 15:30N 49°39' W 000°37'611.9
2018-Jun-20 15:00N 49°37' W 000°29'612.3
2018-Jun-20 14:30N 49°34' W 000°20'612.5
2018-Jun-20 14:00N 49°32' W 000°11'713.7
2018-Jun-20 13:30N 49°30' W 000°01'612.0
2018-Jun-20 13:00N 49°28' E 000°08'2 3.4
2018-Jun-20 12:30N 49°29' E 000°10'0 0.8
2018-Jun-20 12:00N 49°29' E 000°11'1 1.3
2018-Jun-20 11:30N 49°28' E 000°12'0 0.0
2018-Jun-20 11:00N 49°28' E 000°12'0 0.0
2018-Jun-20 10:30N 49°28' E 000°12'0 0.0
2018-Jun-20 10:00N 49°28' E 000°12'0 0.0
2018-Jun-20 09:30N 49°28' E 000°12'0 0.0
2018-Jun-20 08:57N 49°28' E 000°12'0 0.0
2018-Jun-20 08:30N 49°28' E 000°12'0 0.0
2018-Jun-20 08:00N 49°28' E 000°12'0 0.0
2018-Jun-20 07:30N 49°28' E 000°12'0 0.0
2018-Jun-20 07:00N 49°28' E 000°12'0 0.0
2018-Jun-20 06:30N 49°28' E 000°12'0 0.0
2018-Jun-20 06:00N 49°28' E 000°12'0 0.0
2018-Jun-20 05:30N 49°28' E 000°12'0 0.0
2018-Jun-20 05:00N 49°28' E 000°12'0 0.0
2018-Jun-20 04:30N 49°28' E 000°12'0 0.0
2018-Jun-20 04:00N 49°28' E 000°12'0 0.0
2018-Jun-20 03:30N 49°28' E 000°12'0 0.0
2018-Jun-20 03:00N 49°28' E 000°12'0 0.0
2018-Jun-20 02:30N 49°28' E 000°12'0 0.0
2018-Jun-20 02:00N 49°28' E 000°12'0 0.0
2018-Jun-20 01:30N 49°28' E 000°12'0 0.0
2018-Jun-20 01:00N 49°28' E 000°12'0 0.0
2018-Jun-20 00:30N 49°28' E 000°12'0 0.0
2018-Jun-20 00:00N 49°28' E 000°12'0 0.0
2018-Jun-19 23:30N 49°28' E 000°12'0 0.0
2018-Jun-19 23:00N 49°28' E 000°12'0 0.0
2018-Jun-19 22:30N 49°28' E 000°12'0 0.0
2018-Jun-19 22:00N 49°28' E 000°12'0 0.0
2018-Jun-19 21:30N 49°28' E 000°12'0 0.0
2018-Jun-19 21:00N 49°28' E 000°12'1 1.9
2018-Jun-19 20:30N 49°29' E 000°10'0 0.6
2018-Jun-19 20:00N 49°28' E 000°10'4 8.1
2018-Jun-19 19:30N 49°29' E 000°04'713.3
2018-Jun-19 19:00N 49°31' W 000°06'611.1
2018-Jun-19 18:30N 49°36' W 000°11'612.4
2018-Jun-19 18:00N 49°41' W 000°15'510.7
2018-Jun-19 17:30N 49°46' W 000°20'611.8
2018-Jun-19 17:00N 49°51' W 000°24'611.8
2018-Jun-19 16:30N 49°56' W 000°28'612.2
2018-Jun-19 16:00N 50°02' W 000°32'2012.9
2018-Jun-19 14:27N 50°21' W 000°43'614.0
2018-Jun-19 14:00N 50°26' W 000°49'713.7
2018-Jun-19 13:30N 50°32' W 000°54'713.5
2018-Jun-19 13:00N 50°38' W 000°58'714.1
2018-Jun-19 12:30N 50°44' W 001°04'713.5
2018-Jun-19 12:00N 50°46' W 001°14'510.8
2018-Jun-19 11:30N 50°50' W 001°19'5 9.9
2018-Jun-19 11:00N 50°54' W 001°25'1 1.2
2018-Jun-19 10:29N 50°54' W 001°26'0 0.0
2018-Jun-19 09:59N 50°54' W 001°26'0 0.0
2018-Jun-19 09:29N 50°54' W 001°26'0 0.0
2018-Jun-19 08:59N 50°54' W 001°26'0 0.0
2018-Jun-19 08:29N 50°54' W 001°26'1 2.5
2018-Jun-19 08:01N 50°53' W 001°24'0 0.9
2018-Jun-19 07:30N 50°53' W 001°24'0 0.0
2018-Jun-19 07:00N 50°53' W 001°24'0 0.0
2018-Jun-19 06:30N 50°53' W 001°24'0 0.0
2018-Jun-19 06:00N 50°53' W 001°24'0 0.0
2018-Jun-19 05:30N 50°53' W 001°24'1 1.0
2018-Jun-19 05:00N 50°53' W 001°24'4 7.3
2018-Jun-19 04:30N 50°50' W 001°19'611.1
2018-Jun-19 04:00N 50°47' W 001°12'612.2
2018-Jun-19 03:31N 50°44' W 001°04'714.1
2018-Jun-19 03:00N 50°40' W 000°55'713.8
2018-Jun-19 02:30N 50°38' W 000°45'714.3
2018-Jun-19 02:00N 50°36' W 000°34'714.5
2018-Jun-19 01:30N 50°35' W 000°22'1114.1
2018-Jun-19 00:46N 50°33' W 000°06'414.1
2018-Jun-19 00:31N 50°32' W 000°01'714.0
2018-Jun-19 00:00N 50°34' E 000°10'713.5
2018-Jun-18 23:30N 50°36' E 000°20'713.8
2018-Jun-18 23:00N 50°38' E 000°31'714.3
2018-Jun-18 22:30N 50°41' E 000°41'815.6
2018-Jun-18 22:00N 50°46' E 000°51'816.3
2018-Jun-18 21:30N 50°51' E 001°01'816.3
2018-Jun-18 21:00N 50°56' E 001°11'816.2
2018-Jun-18 20:30N 51°01' E 001°21'815.6
2018-Jun-18 20:00N 51°06' E 001°31'714.6
2018-Jun-18 19:30N 51°10' E 001°40'714.2
2018-Jun-18 19:00N 51°15' E 001°48'713.8
2018-Jun-18 18:30N 51°21' E 001°54'510.6
2018-Jun-18 18:00N 51°25' E 002°00'612.5
2018-Jun-18 17:30N 51°22' E 002°09'611.9
2018-Jun-18 17:01N 51°20' E 002°19'510.6
2018-Jun-18 16:30N 51°22' E 002°27'510.7
2018-Jun-18 16:00N 51°23' E 002°35'611.2
2018-Jun-18 15:30N 51°23' E 002°44'611.6
2018-Jun-18 15:00N 51°23' E 002°54'815.4
2018-Jun-18 14:30N 51°24' E 003°06'612.3
2018-Jun-18 14:01N 51°20' E 003°13'0 0.0
2018-Jun-18 13:30N 51°20' E 003°13'0 0.4
2018-Jun-18 13:00N 51°20' E 003°13'0 0.8
2018-Jun-18 12:26N 51°19' E 003°13'0 0.0
2018-Jun-18 10:53N 51°19' E 003°13'0 0.0
2018-Jun-18 10:23N 51°19' E 003°13'0 0.0
2018-Jun-18 09:56N 51°19' E 003°13'0 0.0
2018-Jun-18 09:29N 51°19' E 003°13'0 0.0
2018-Jun-18 08:56N 51°19' E 003°13'0 0.0
2018-Jun-18 08:29N 51°19' E 003°13'0 0.0
2018-Jun-18 07:53N 51°19' E 003°13'0 0.0
2018-Jun-18 07:29N 51°19' E 003°13'0 0.0
2018-Jun-18 04:41N 51°19' E 003°13'0 0.0
2018-Jun-18 04:14N 51°19' E 003°13'0 0.0
2018-Jun-18 03:41N 51°19' E 003°13'0 0.0
2018-Jun-18 03:23N 51°19' E 003°13'0 0.0
2018-Jun-18 03:00N 51°19' E 003°13'0 0.9
2018-Jun-18 02:30N 51°20' E 003°13'0 0.7
2018-Jun-18 02:00N 51°20' E 003°13'5 9.3
2018-Jun-18 01:30N 51°24' E 003°08'816.6
2018-Jun-18 01:00N 51°22' E 002°55'714.5
2018-Jun-18 00:30N 51°22' E 002°43'610.1
2018-Jun-17 23:54N 51°22' E 002°34'3 6.4
2018-Jun-17 23:27N 51°21' E 002°29'3 5.9
2018-Jun-17 22:54N 51°20' E 002°24'3 7.0
2018-Jun-17 22:29N 51°19' E 002°20'4 7.4
2018-Jun-17 22:00N 51°17' E 002°15'4 7.6
2018-Jun-17 21:30N 51°15' E 002°10'4 8.9
2018-Jun-17 21:00N 51°13' E 002°04'4 8.9
2018-Jun-17 20:30N 51°11' E 001°58'4 8.9
2018-Jun-17 20:00N 51°08' E 001°52'5 9.1
2018-Jun-17 19:30N 51°06' E 001°46'510.0
2018-Jun-17 19:00N 51°02' E 001°40'611.3
2018-Jun-17 18:30N 50°58' E 001°34'712.9
2018-Jun-17 18:00N 50°53' E 001°28'5012.4
2018-Jun-17 13:58N 50°23' E 000°25'714.1
2018-Jun-17 13:30N 50°21' E 000°15'714.6
2018-Jun-17 13:00N 50°19' E 000°04'815.1
2018-Jun-17 12:30N 50°17' W 000°08'815.7
2018-Jun-17 12:00N 50°15' W 000°19'816.3
2018-Jun-17 11:30N 50°13' W 000°31'816.6
2018-Jun-17 11:00N 50°10' W 000°44'816.8
2018-Jun-17 10:30N 50°08' W 000°56'6715.1
2018-Jun-17 06:06N 49°50' W 002°37'1811.8
2018-Jun-17 04:33N 49°43' W 003°03'111.5
2018-Jun-17 04:30N 49°43' W 003°03'611.3
2018-Jun-17 03:59N 49°40' W 003°11'711.1
2018-Jun-17 03:22N 49°36' W 003°20'911.2
2018-Jun-17 02:32N 49°32' W 003°33'211.3
2018-Jun-17 02:22N 49°31' W 003°36'411.4
2018-Jun-17 01:59N 49°29' W 003°41'511.2
2018-Jun-17 01:30N 49°26' W 003°49'611.1
2018-Jun-17 00:59N 49°23' W 003°56'711.2
2018-Jun-17 00:23N 49°20' W 004°05'411.3
2018-Jun-17 00:00N 49°18' W 004°11'611.7
2018-Jun-16 23:30N 49°15' W 004°18'711.9
2018-Jun-16 22:57N 49°11' W 004°27'512.1
2018-Jun-16 22:30N 49°08' W 004°34'712.3
2018-Jun-16 21:58N 49°05' W 004°43'612.5
2018-Jun-16 21:29N 49°02' W 004°51'613.1
2018-Jun-16 21:00N 48°59' W 004°59'713.4
2018-Jun-16 20:30N 48°56' W 005°08'612.9
2018-Jun-16 20:01N 48°52' W 005°16'917.8
2018-Jun-16 19:31N 48°48' W 005°28'1317.1
2018-Jun-16 18:46N 48°38' W 005°41'2316.3
2018-Jun-16 17:21N 48°16' W 005°30'617.0
2018-Jun-16 16:59N 48°11' W 005°26'816.8
2018-Jun-16 16:30N 48°04' W 005°20'917.5
2018-Jun-16 16:00N 47°56' W 005°14'917.6
2018-Jun-16 15:29N 47°48' W 005°08'11716.1
2018-Jun-16 08:14N 46°03' W 003°52'1813.0
2018-Jun-16 06:51N 45°47' W 003°40'612.8
2018-Jun-16 06:21N 45°41' W 003°36'8513.1
2018-Jun-15 23:53N 44°26' W 002°42'513.4
2018-Jun-15 23:30N 44°22' W 002°38'713.2
2018-Jun-15 23:00N 44°16' W 002°35'612.8
2018-Jun-15 22:30N 44°10' W 002°31'612.4
2018-Jun-15 22:00N 44°04' W 002°27'612.3
2018-Jun-15 21:30N 43°59' W 002°23'612.5
2018-Jun-15 21:00N 43°53' W 002°19'612.5
2018-Jun-15 20:30N 43°48' W 002°15'612.1
2018-Jun-15 20:00N 43°42' W 002°11'612.4
2018-Jun-15 19:30N 43°37' W 002°07'613.0
2018-Jun-15 19:00N 43°31' W 002°03'713.1
2018-Jun-15 18:30N 43°26' W 001°59'7 7.3
2018-Jun-15 17:33N 43°19' W 001°54'0 0.1
2018-Jun-15 17:27N 43°19' W 001°54'0 0.0
2018-Jun-15 17:00N 43°19' W 001°54'0 0.0
2018-Jun-15 16:30N 43°19' W 001°54'0 0.0
2018-Jun-15 15:59N 43°19' W 001°54'0 0.0
2018-Jun-15 15:29N 43°19' W 001°54'0 0.0
2018-Jun-15 14:56N 43°19' W 001°54'0 0.0
2018-Jun-15 14:26N 43°19' W 001°54'0 0.0
2018-Jun-15 13:44N 43°19' W 001°54'0 0.0
2018-Jun-15 13:26N 43°19' W 001°54'0 0.0
2018-Jun-15 12:56N 43°19' W 001°54'0 0.0
2018-Jun-15 12:29N 43°19' W 001°54'0 0.0
2018-Jun-15 11:59N 43°19' W 001°54'0 0.0
2018-Jun-15 11:29N 43°19' W 001°54'0 0.2
2018-Jun-15 11:00N 43°19' W 001°54'3 5.0
2018-Jun-15 10:30N 43°21' W 001°56'714.8
2018-Jun-15 10:01N 43°28' W 002°01'816.0
2018-Jun-15 09:30N 43°35' W 002°06'815.8
2018-Jun-15 09:01N 43°42' W 002°11'815.9
2018-Jun-15 08:31N 43°49' W 002°17'815.6
2018-Jun-15 08:01N 43°56' W 002°22'815.7
2018-Jun-15 07:31N 44°03' W 002°27'816.1
2018-Jun-15 07:01N 44°10' W 002°32'815.9
2018-Jun-15 06:30N 44°17' W 002°37'815.9
2018-Jun-15 06:01N 44°24' W 002°42'32113.1
2018-Jun-14 05:37N 49°43' W 003°37'211.6
2018-Jun-14 05:28N 49°44' W 003°35'511.6
2018-Jun-14 05:00N 49°46' W 003°28'612.3
2018-Jun-14 04:30N 49°49' W 003°19'613.0
2018-Jun-14 04:00N 49°53' W 003°11'714.1
2018-Jun-14 03:30N 49°56' W 003°01'815.1
2018-Jun-14 03:00N 49°59' W 002°50'816.1
2018-Jun-14 02:30N 50°01' W 002°38'1816.7
2018-Jun-14 01:26N 49°59' W 002°10'818.3
2018-Jun-14 01:00N 49°56' W 001°59'918.5
2018-Jun-14 00:31N 49°54' W 001°45'917.8
2018-Jun-14 00:00N 49°52' W 001°32'917.4
2018-Jun-13 23:30N 49°49' W 001°19'816.6
2018-Jun-13 23:01N 49°46' W 001°07'815.3
2018-Jun-13 22:30N 49°43' W 000°56'714.6
2018-Jun-13 22:00N 49°40' W 000°46'714.0
2018-Jun-13 21:30N 49°38' W 000°36'713.6
2018-Jun-13 21:01N 49°36' W 000°26'713.8
2018-Jun-13 20:30N 49°33' W 000°16'714.6
2018-Jun-13 20:01N 49°31' W 000°05'816.1
2018-Jun-13 19:30N 49°29' E 000°07'2 4.6
2018-Jun-13 18:59N 49°29' E 000°10'0 0.0
2018-Jun-13 18:29N 49°29' E 000°10'1 2.1
2018-Jun-13 17:59N 49°28' E 000°12'0 0.0
2018-Jun-13 17:29N 49°28' E 000°12'0 0.0
2018-Jun-13 16:59N 49°28' E 000°12'0 0.0
2018-Jun-13 16:29N 49°28' E 000°12'0 0.0
2018-Jun-13 15:59N 49°28' E 000°12'0 0.0
2018-Jun-13 15:29N 49°28' E 000°12'0 0.0
2018-Jun-13 14:59N 49°28' E 000°12'0 0.0
2018-Jun-13 14:29N 49°28' E 000°12'0 0.0
2018-Jun-13 13:59N 49°28' E 000°12'0 0.0
2018-Jun-13 13:29N 49°28' E 000°12'0 0.0
2018-Jun-13 12:59N 49°28' E 000°12'1 2.2
2018-Jun-13 12:30N 49°29' E 000°10'0 0.0
2018-Jun-13 12:00N 49°29' E 000°10'2 3.1
2018-Jun-13 11:30N 49°28' E 000°08'3 6.9
2018-Jun-13 11:00N 49°30' E 000°03'611.2
2018-Jun-13 10:30N 49°31' W 000°05'5 9.2
2018-Jun-13 10:00N 49°35' W 000°09'3 6.7
2018-Jun-13 09:30N 49°37' W 000°12'4 7.5
2018-Jun-13 09:00N 49°40' W 000°16'4 7.4
2018-Jun-13 08:30N 49°41' W 000°21'3 5.1
2018-Jun-13 07:55N 49°42' W 000°17'4 9.9
2018-Jun-13 07:30N 49°45' W 000°19'611.3
2018-Jun-13 07:00N 49°50' W 000°23'611.2
2018-Jun-13 06:30N 49°56' W 000°27'611.7
2018-Jun-13 06:00N 50°01' W 000°31'611.2
2018-Jun-13 05:30N 50°06' W 000°34'611.5
2018-Jun-13 05:00N 50°11' W 000°38'712.2
2018-Jun-13 04:25N 50°17' W 000°43'511.6
2018-Jun-13 03:57N 50°22' W 000°47'612.5
2018-Jun-13 03:30N 50°27' W 000°51'612.0
2018-Jun-13 03:00N 50°33' W 000°55'611.5
2018-Jun-13 02:30N 50°38' W 000°59'713.1
2018-Jun-13 02:00N 50°44' W 001°03'612.7
2018-Jun-13 01:31N 50°46' W 001°13'510.0
2018-Jun-13 01:00N 50°49' W 001°18'611.4
2018-Jun-13 00:30N 50°53' W 001°25'1 2.0
2018-Jun-13 00:00N 50°54' W 001°26'0 0.0
2018-Jun-12 12:18N 50°54' W 001°26'0 0.0
2018-Jun-12 11:39N 50°54' W 001°26'0 0.0
2018-Jun-12 11:12N 50°54' W 001°26'0 0.0
2018-Jun-12 10:48N 50°54' W 001°26'0 0.0
2018-Jun-12 08:51N 50°54' W 001°26'0 0.0
2018-Jun-12 08:18N 50°54' W 001°26'1 2.3
2018-Jun-12 08:00N 50°54' W 001°25'1 1.9
2018-Jun-12 07:30N 50°53' W 001°24'0 0.3
2018-Jun-12 06:58N 50°53' W 001°24'0 0.0
2018-Jun-12 06:25N 50°53' W 001°24'0 0.0
2018-Jun-12 05:58N 50°53' W 001°24'0 0.2
2018-Jun-12 05:30N 50°53' W 001°24'2 4.1
2018-Jun-12 05:00N 50°52' W 001°22'5 9.1
2018-Jun-12 04:30N 50°48' W 001°18'611.8
2018-Jun-12 04:00N 50°46' W 001°10'714.2
2018-Jun-12 03:30N 50°42' W 001°00'4 8.7
2018-Jun-12 03:00N 50°40' W 000°54'4 8.6
2018-Jun-12 02:30N 50°38' W 000°48'5 9.5
2018-Jun-12 02:00N 50°37' W 000°40'5 9.6
2018-Jun-12 01:30N 50°36' W 000°33'5 9.7
2018-Jun-12 01:00N 50°35' W 000°26'510.1
2018-Jun-12 00:30N 50°34' W 000°18'510.1
2018-Jun-12 00:00N 50°33' W 000°10'510.7
2018-Jun-11 23:30N 50°32' W 000°02'814.9
2018-Jun-11 23:00N 50°34' E 000°10'714.5
2018-Jun-11 22:31N 50°35' E 000°21'714.1
2018-Jun-11 22:00N 50°37' E 000°31'713.4
2018-Jun-11 21:30N 50°41' E 000°41'713.2
2018-Jun-11 21:00N 50°45' E 000°49'713.2
2018-Jun-11 20:30N 50°49' E 000°57'713.3
2018-Jun-11 20:00N 50°53' E 001°05'713.7
2018-Jun-11 19:30N 50°57' E 001°14'714.7
2018-Jun-11 19:00N 51°02' E 001°23'816.3
2018-Jun-11 18:30N 51°07' E 001°33'816.8
2018-Jun-11 18:00N 51°13' E 001°43'816.7
2018-Jun-11 17:30N 51°19' E 001°52'815.9
2018-Jun-11 17:01N 51°25' E 002°00'714.1
2018-Jun-11 16:31N 51°22' E 002°11'713.6
2018-Jun-11 16:00N 51°21' E 002°22'915.0
2018-Jun-11 15:26N 51°23' E 002°35'614.0
2018-Jun-11 15:00N 51°21' E 002°44'815.4
2018-Jun-11 14:30N 51°22' E 002°57'815.9
2018-Jun-11 14:00N 51°22' E 003°10'3 6.0
2018-Jun-11 13:31N 51°20' E 003°13'0 0.0
2018-Jun-11 13:00N 51°20' E 003°13'0 0.0
2018-Jun-11 12:31N 51°20' E 003°13'1 1.2
2018-Jun-11 12:01N 51°19' E 003°13'0 0.0
2018-Jun-11 11:29N 51°19' E 003°13'0 0.0
2018-Jun-11 10:59N 51°19' E 003°13'0 0.0
2018-Jun-11 10:29N 51°19' E 003°13'0 0.0
2018-Jun-11 09:59N 51°19' E 003°13'  

Dump ship's entire track history